sensor_id;sensor_type;location;lat;lon;timestamp;pressure;altitude;pressure_sealevel;temperature;humidity
59757;BME280;45631;51.962;5.974;2023-07-20T00:00:34;101245.47;;;17.56;100.00
59757;BME280;45631;51.962;5.974;2023-07-20T00:03:12;101250.47;;;17.40;100.00
59757;BME280;45631;51.962;5.974;2023-07-20T00:05:45;101245.91;;;17.21;100.00
59757;BME280;45631;51.962;5.974;2023-07-20T00:08:13;101253.41;;;17.06;100.00
59757;BME280;45631;51.962;5.974;2023-07-20T00:10:41;101249.94;;;17.15;100.00
59757;BME280;45631;51.962;5.974;2023-07-20T00:13:11;101250.47;;;17.09;100.00
59757;BME280;45631;51.962;5.974;2023-07-20T00:15:40;101247.81;;;17.09;100.00
59757;BME280;45631;51.962;5.974;2023-07-20T00:18:11;101246.13;;;17.08;100.00
59757;BME280;45631;51.962;5.974;2023-07-20T00:20:39;101247.78;;;16.99;100.00
59757;BME280;45631;51.962;5.974;2023-07-20T00:23:09;101247.72;;;16.89;100.00
59757;BME280;45631;51.962;5.974;2023-07-20T00:25:37;101249.75;;;16.86;100.00
59757;BME280;45631;51.962;5.974;2023-07-20T00:28:05;101248.19;;;16.83;100.00
59757;BME280;45631;51.962;5.974;2023-07-20T00:30:33;101252.09;;;16.79;100.00
59757;BME280;45631;51.962;5.974;2023-07-20T00:33:02;101252.38;;;16.76;100.00
59757;BME280;45631;51.962;5.974;2023-07-20T00:35:30;101247.50;;;16.81;100.00
59757;BME280;45631;51.962;5.974;2023-07-20T00:37:58;101242.00;;;16.73;100.00
59757;BME280;45631;51.962;5.974;2023-07-20T00:40:27;101238.63;;;16.71;100.00
59757;BME280;45631;51.962;5.974;2023-07-20T00:42:55;101237.19;;;16.67;100.00
59757;BME280;45631;51.962;5.974;2023-07-20T00:45:27;101242.25;;;16.70;100.00
59757;BME280;45631;51.962;5.974;2023-07-20T00:47:55;101243.94;;;16.71;100.00
59757;BME280;45631;51.962;5.974;2023-07-20T00:50:26;101251.00;;;16.61;100.00
59757;BME280;45631;51.962;5.974;2023-07-20T00:52:56;101253.34;;;16.54;100.00
59757;BME280;45631;51.962;5.974;2023-07-20T00:55:24;101248.53;;;16.48;100.00
59757;BME280;45631;51.962;5.974;2023-07-20T00:57:54;101242.25;;;16.49;100.00
59757;BME280;45631;51.962;5.974;2023-07-20T01:00:22;101246.16;;;16.45;100.00
59757;BME280;45631;51.962;5.974;2023-07-20T01:02:51;101247.84;;;16.46;100.00
59757;BME280;45631;51.962;5.974;2023-07-20T01:05:20;101242.44;;;16.36;100.00
59757;BME280;45631;51.962;5.974;2023-07-20T01:07:54;101237.31;;;16.44;100.00
59757;BME280;45631;51.962;5.974;2023-07-20T01:10:25;101234.66;;;16.44;100.00
59757;BME280;45631;51.962;5.974;2023-07-20T01:12:59;101243.16;;;16.38;100.00
59757;BME280;45631;51.962;5.974;2023-07-20T01:15:28;101242.91;;;16.41;100.00
59757;BME280;45631;51.962;5.974;2023-07-20T01:17:56;101241.66;;;16.45;100.00
59757;BME280;45631;51.962;5.974;2023-07-20T01:20:25;101245.19;;;16.46;100.00
59757;BME280;45631;51.962;5.974;2023-07-20T01:23:17;101258.44;;;16.46;100.00
59757;BME280;45631;51.962;5.974;2023-07-20T01:26:07;101248.81;;;16.45;100.00
59757;BME280;45631;51.962;5.974;2023-07-20T01:29:11;101250.81;;;16.52;100.00
59757;BME280;45631;51.962;5.974;2023-07-20T01:31:47;101262.63;;;16.48;100.00
59757;BME280;45631;51.962;5.974;2023-07-20T01:34:19;101263.16;;;16.42;100.00
59757;BME280;45631;51.962;5.974;2023-07-20T01:36:50;101256.91;;;16.43;100.00
59757;BME280;45631;51.962;5.974;2023-07-20T01:39:20;101263.03;;;16.44;100.00
59757;BME280;45631;51.962;5.974;2023-07-20T01:41:49;101260.38;;;16.44;100.00
59757;BME280;45631;51.962;5.974;2023-07-20T01:44:17;101262.34;;;16.42;100.00
59757;BME280;45631;51.962;5.974;2023-07-20T01:46:47;101271.53;;;16.37;100.00
59757;BME280;45631;51.962;5.974;2023-07-20T01:49:15;101265.22;;;16.38;100.00
59757;BME280;45631;51.962;5.974;2023-07-20T01:51:44;101255.22;;;16.42;100.00
59757;BME280;45631;51.962;5.974;2023-07-20T01:54:14;101258.69;;;16.43;100.00
59757;BME280;45631;51.962;5.974;2023-07-20T01:56:43;101260.13;;;16.47;100.00
59757;BME280;45631;51.962;5.974;2023-07-20T01:59:11;101261.59;;;16.39;100.00
59757;BME280;45631;51.962;5.974;2023-07-20T02:01:40;101259.69;;;16.42;100.00
59757;BME280;45631;51.962;5.974;2023-07-20T02:04:11;101261.41;;;16.31;100.00
59757;BME280;45631;51.962;5.974;2023-07-20T02:06:40;101264.31;;;16.28;100.00
59757;BME280;45631;51.962;5.974;2023-07-20T02:09:08;101260.81;;;16.28;100.00
59757;BME280;45631;51.962;5.974;2023-07-20T02:11:36;101260.25;;;16.24;100.00
59757;BME280;45631;51.962;5.974;2023-07-20T02:14:04;101261.94;;;16.14;100.00
59757;BME280;45631;51.962;5.974;2023-07-20T02:16:32;101264.72;;;16.12;100.00
59757;BME280;45631;51.962;5.974;2023-07-20T02:19:01;101272.09;;;16.09;100.00
59757;BME280;45631;51.962;5.974;2023-07-20T02:21:31;101269.97;;;16.02;100.00
59757;BME280;45631;51.962;5.974;2023-07-20T02:24:00;101270.56;;;15.95;100.00
59757;BME280;45631;51.962;5.974;2023-07-20T02:26:28;101261.78;;;15.94;100.00
59757;BME280;45631;51.962;5.974;2023-07-20T02:28:56;101273.81;;;15.98;100.00
59757;BME280;45631;51.962;5.974;2023-07-20T02:31:24;101266.81;;;15.97;100.00
59757;BME280;45631;51.962;5.974;2023-07-20T02:33:53;101265.25;;;15.95;100.00
59757;BME280;45631;51.962;5.974;2023-07-20T02:36:24;101270.69;;;15.93;100.00
59757;BME280;45631;51.962;5.974;2023-07-20T02:38:54;101263.69;;;15.92;100.00
59757;BME280;45631;51.962;5.974;2023-07-20T02:41:24;101263.00;;;15.90;100.00
59757;BME280;45631;51.962;5.974;2023-07-20T02:43:52;101270.00;;;15.91;100.00
59757;BME280;45631;51.962;5.974;2023-07-20T02:46:20;101267.56;;;15.88;100.00
59757;BME280;45631;51.962;5.974;2023-07-20T02:48:49;101270.09;;;15.78;100.00
59757;BME280;45631;51.962;5.974;2023-07-20T02:51:17;101276.00;;;15.70;100.00
59757;BME280;45631;51.962;5.974;2023-07-20T02:53:45;101277.34;;;15.65;100.00
59757;BME280;45631;51.962;5.974;2023-07-20T02:56:15;101278.91;;;15.67;100.00
59757;BME280;45631;51.962;5.974;2023-07-20T02:58:44;101280.13;;;15.63;100.00
59757;BME280;45631;51.962;5.974;2023-07-20T03:01:13;101290.25;;;15.69;100.00
59757;BME280;45631;51.962;5.974;2023-07-20T03:03:42;101287.59;;;15.58;100.00
59757;BME280;45631;51.962;5.974;2023-07-20T03:06:14;101292.06;;;15.46;100.00
59757;BME280;45631;51.962;5.974;2023-07-20T03:08:43;101295.06;;;15.42;100.00
59757;BME280;45631;51.962;5.974;2023-07-20T03:11:16;101298.91;;;15.37;100.00
59757;BME280;45631;51.962;5.974;2023-07-20T03:13:44;101290.97;;;15.37;100.00
59757;BME280;45631;51.962;5.974;2023-07-20T03:16:15;101302.31;;;15.40;100.00
59757;BME280;45631;51.962;5.974;2023-07-20T03:18:46;101313.03;;;15.38;100.00
59757;BME280;45631;51.962;5.974;2023-07-20T03:21:14;101301.81;;;15.34;100.00
59757;BME280;45631;51.962;5.974;2023-07-20T03:23:42;101309.53;;;15.26;100.00
59757;BME280;45631;51.962;5.974;2023-07-20T03:26:11;101312.53;;;15.33;100.00
59757;BME280;45631;51.962;5.974;2023-07-20T03:28:40;101309.03;;;15.21;100.00
59757;BME280;45631;51.962;5.974;2023-07-20T03:31:09;101305.88;;;15.04;100.00
59757;BME280;45631;51.962;5.974;2023-07-20T03:33:37;101301.41;;;14.94;100.00
59757;BME280;45631;51.962;5.974;2023-07-20T03:36:06;101315.00;;;14.89;100.00
59757;BME280;45631;51.962;5.974;2023-07-20T03:38:34;101306.44;;;14.85;100.00
59757;BME280;45631;51.962;5.974;2023-07-20T03:41:02;101311.38;;;14.90;100.00
59757;BME280;45631;51.962;5.974;2023-07-20T03:43:33;101315.84;;;14.90;100.00
59757;BME280;45631;51.962;5.974;2023-07-20T03:46:03;101308.84;;;14.88;100.00
59757;BME280;45631;51.962;5.974;2023-07-20T03:48:34;101311.13;;;14.82;100.00
59757;BME280;45631;51.962;5.974;2023-07-20T03:51:02;101308.13;;;14.86;100.00
59757;BME280;45631;51.962;5.974;2023-07-20T03:53:31;101311.34;;;14.79;100.00
59757;BME280;45631;51.962;5.974;2023-07-20T03:55:59;101306.06;;;14.79;100.00
59757;BME280;45631;51.962;5.974;2023-07-20T03:58:27;101316.50;;;14.69;100.00
59757;BME280;45631;51.962;5.974;2023-07-20T04:00:57;101312.78;;;14.72;100.00
59757;BME280;45631;51.962;5.974;2023-07-20T04:03:27;101313.75;;;14.70;100.00
59757;BME280;45631;51.962;5.974;2023-07-20T04:05:57;101317.56;;;14.66;100.00
59757;BME280;45631;51.962;5.974;2023-07-20T04:08:26;101316.16;;;14.74;100.00
59757;BME280;45631;51.962;5.974;2023-07-20T04:10:54;101322.63;;;14.69;100.00
59757;BME280;45631;51.962;5.974;2023-07-20T04:13:22;101317.69;;;14.65;100.00
59757;BME280;45631;51.962;5.974;2023-07-20T04:15:50;101323.81;;;14.65;100.00
59757;BME280;45631;51.962;5.974;2023-07-20T04:18:19;101326.47;;;14.65;100.00
59757;BME280;45631;51.962;5.974;2023-07-20T04:20:48;101321.28;;;14.64;100.00
59757;BME280;45631;51.962;5.974;2023-07-20T04:23:16;101323.09;;;14.63;100.00
59757;BME280;45631;51.962;5.974;2023-07-20T04:25:45;101324.16;;;14.61;100.00
59757;BME280;45631;51.962;5.974;2023-07-20T04:28:13;101317.03;;;14.61;100.00
59757;BME280;45631;51.962;5.974;2023-07-20T04:30:42;101328.41;;;14.63;100.00
59757;BME280;45631;51.962;5.974;2023-07-20T04:33:10;101326.78;;;14.61;100.00
59757;BME280;45631;51.962;5.974;2023-07-20T04:35:45;101331.75;;;14.65;100.00
59757;BME280;45631;51.962;5.974;2023-07-20T04:38:16;101328.41;;;14.63;100.00
59757;BME280;45631;51.962;5.974;2023-07-20T04:40:45;101331.88;;;14.64;100.00
59757;BME280;45631;51.962;5.974;2023-07-20T04:43:14;101336.16;;;14.53;100.00
59757;BME280;45631;51.962;5.974;2023-07-20T04:45:42;101338.91;;;14.52;100.00
59757;BME280;45631;51.962;5.974;2023-07-20T04:48:12;101341.25;;;14.44;100.00
59757;BME280;45631;51.962;5.974;2023-07-20T04:50:40;101343.91;;;14.44;100.00
59757;BME280;45631;51.962;5.974;2023-07-20T04:53:08;101347.03;;;14.37;100.00
59757;BME280;45631;51.962;5.974;2023-07-20T04:55:39;101342.00;;;14.46;100.00
59757;BME280;45631;51.962;5.974;2023-07-20T04:58:08;101349.44;;;14.41;100.00
59757;BME280;45631;51.962;5.974;2023-07-20T05:00:37;101343.06;;;14.43;100.00
59757;BME280;45631;51.962;5.974;2023-07-20T05:03:06;101348.00;;;14.48;100.00
59757;BME280;45631;51.962;5.974;2023-07-20T05:05:34;101343.34;;;14.51;100.00
59757;BME280;45631;51.962;5.974;2023-07-20T05:08:04;101343.75;;;14.58;100.00
59757;BME280;45631;51.962;5.974;2023-07-20T05:10:32;101343.22;;;14.66;100.00
59757;BME280;45631;51.962;5.974;2023-07-20T05:13:01;101348.66;;;14.76;100.00
59757;BME280;45631;51.962;5.974;2023-07-20T05:15:30;101344.69;;;14.81;100.00
59757;BME280;45631;51.962;5.974;2023-07-20T05:18:00;101349.75;;;14.84;100.00
59757;BME280;45631;51.962;5.974;2023-07-20T05:20:28;101346.19;;;14.97;100.00
59757;BME280;45631;51.962;5.974;2023-07-20T05:22:59;101349.22;;;15.03;100.00
59757;BME280;45631;51.962;5.974;2023-07-20T05:25:28;101355.75;;;15.11;100.00
59757;BME280;45631;51.962;5.974;2023-07-20T05:27:57;101349.84;;;15.18;100.00
59757;BME280;45631;51.962;5.974;2023-07-20T05:30:27;101346.25;;;15.19;100.00
59757;BME280;45631;51.962;5.974;2023-07-20T05:32:56;101355.78;;;15.33;100.00
59757;BME280;45631;51.962;5.974;2023-07-20T05:35:25;101360.81;;;15.36;100.00
59757;BME280;45631;51.962;5.974;2023-07-20T05:37:54;101363.97;;;15.42;100.00
59757;BME280;45631;51.962;5.974;2023-07-20T05:40:22;101368.94;;;15.46;100.00
59757;BME280;45631;51.962;5.974;2023-07-20T05:42:50;101371.94;;;15.64;100.00
59757;BME280;45631;51.962;5.974;2023-07-20T05:45:20;101365.94;;;15.85;100.00
59757;BME280;45631;51.962;5.974;2023-07-20T05:47:50;101374.63;;;15.98;100.00
59757;BME280;45631;51.962;5.974;2023-07-20T05:50:18;101372.69;;;16.00;100.00
59757;BME280;45631;51.962;5.974;2023-07-20T05:52:46;101379.41;;;16.04;100.00
59757;BME280;45631;51.962;5.974;2023-07-20T05:55:15;101376.41;;;16.09;100.00
59757;BME280;45631;51.962;5.974;2023-07-20T05:57:43;101373.59;;;16.22;100.00
59757;BME280;45631;51.962;5.974;2023-07-20T06:00:12;101372.88;;;16.31;100.00
59757;BME280;45631;51.962;5.974;2023-07-20T06:02:41;101371.41;;;16.38;100.00
59757;BME280;45631;51.962;5.974;2023-07-20T06:05:11;101376.44;;;16.53;100.00
59757;BME280;45631;51.962;5.974;2023-07-20T06:07:39;101378.69;;;16.58;100.00
59757;BME280;45631;51.962;5.974;2023-07-20T06:10:07;101386.50;;;16.70;100.00
59757;BME280;45631;51.962;5.974;2023-07-20T06:12:36;101389.25;;;16.80;100.00
59757;BME280;45631;51.962;5.974;2023-07-20T06:15:05;101387.66;;;16.89;100.00
59757;BME280;45631;51.962;5.974;2023-07-20T06:17:33;101396.56;;;16.99;100.00
59757;BME280;45631;51.962;5.974;2023-07-20T06:20:06;101392.25;;;17.08;100.00
59757;BME280;45631;51.962;5.974;2023-07-20T06:22:36;101391.50;;;17.17;100.00
59757;BME280;45631;51.962;5.974;2023-07-20T06:25:05;101401.34;;;17.27;100.00
59757;BME280;45631;51.962;5.974;2023-07-20T06:27:33;101390.91;;;17.35;100.00
59757;BME280;45631;51.962;5.974;2023-07-20T06:30:02;101388.97;;;17.37;100.00
59757;BME280;45631;51.962;5.974;2023-07-20T06:32:30;101390.81;;;17.46;100.00
59757;BME280;45631;51.962;5.974;2023-07-20T06:34:59;101393.53;;;17.56;100.00
59757;BME280;45631;51.962;5.974;2023-07-20T06:37:27;101392.50;;;17.68;100.00
59757;BME280;45631;51.962;5.974;2023-07-20T06:39:57;101393.06;;;17.82;100.00
59757;BME280;45631;51.962;5.974;2023-07-20T06:42:28;101396.06;;;17.88;100.00
59757;BME280;45631;51.962;5.974;2023-07-20T06:45:16;101400.16;;;17.93;100.00
59757;BME280;45631;51.962;5.974;2023-07-20T06:47:44;101402.47;;;18.07;100.00
59757;BME280;45631;51.962;5.974;2023-07-20T06:50:13;101397.16;;;18.17;100.00
59757;BME280;45631;51.962;5.974;2023-07-20T06:52:44;101397.88;;;18.29;100.00
59757;BME280;45631;51.962;5.974;2023-07-20T06:55:16;101395.81;;;18.42;100.00
59757;BME280;45631;51.962;5.974;2023-07-20T06:57:47;101406.63;;;18.60;100.00
59757;BME280;45631;51.962;5.974;2023-07-20T07:00:15;101402.41;;;18.77;100.00
59757;BME280;45631;51.962;5.974;2023-07-20T07:02:44;101405.38;;;18.94;100.00
59757;BME280;45631;51.962;5.974;2023-07-20T07:05:19;101404.13;;;19.07;100.00
59757;BME280;45631;51.962;5.974;2023-07-20T07:07:48;101400.72;;;19.15;100.00
59757;BME280;45631;51.962;5.974;2023-07-20T07:10:18;101408.72;;;19.35;100.00
59757;BME280;45631;51.962;5.974;2023-07-20T07:12:46;101417.69;;;19.34;100.00
59757;BME280;45631;51.962;5.974;2023-07-20T07:15:14;101415.31;;;19.21;100.00
59757;BME280;45631;51.962;5.974;2023-07-20T07:17:43;101421.22;;;19.15;100.00
59757;BME280;45631;51.962;5.974;2023-07-20T07:20:11;101418.69;;;19.23;100.00
59757;BME280;45631;51.962;5.974;2023-07-20T07:22:47;101417.28;;;19.19;100.00
59757;BME280;45631;51.962;5.974;2023-07-20T07:25:18;101416.84;;;19.33;100.00
59757;BME280;45631;51.962;5.974;2023-07-20T07:27:50;101420.44;;;19.52;100.00
59757;BME280;45631;51.962;5.974;2023-07-20T07:30:19;101426.59;;;19.62;100.00
59757;BME280;45631;51.962;5.974;2023-07-20T07:32:47;101413.63;;;19.87;100.00
59757;BME280;45631;51.962;5.974;2023-07-20T07:35:16;101406.50;;;20.05;100.00
59757;BME280;45631;51.962;5.974;2023-07-20T07:37:44;101415.56;;;20.22;100.00
59757;BME280;45631;51.962;5.974;2023-07-20T07:40:34;101415.25;;;20.43;100.00
59757;BME280;45631;51.962;5.974;2023-07-20T07:43:03;101422.47;;;20.61;100.00
59757;BME280;45631;51.962;5.974;2023-07-20T07:45:34;101419.38;;;20.84;100.00
59757;BME280;45631;51.962;5.974;2023-07-20T07:48:03;101423.78;;;20.75;100.00
59757;BME280;45631;51.962;5.974;2023-07-20T07:50:32;101427.63;;;20.90;100.00
59757;BME280;45631;51.962;5.974;2023-07-20T07:53:00;101421.41;;;21.08;100.00
59757;BME280;45631;51.962;5.974;2023-07-20T07:55:28;101427.34;;;21.20;100.00
59757;BME280;45631;51.962;5.974;2023-07-20T07:57:58;101423.00;;;21.01;100.00
59757;BME280;45631;51.962;5.974;2023-07-20T08:00:26;101424.88;;;21.26;100.00
59757;BME280;45631;51.962;5.974;2023-07-20T08:02:54;101438.03;;;21.20;100.00
59757;BME280;45631;51.962;5.974;2023-07-20T08:05:23;101433.22;;;21.23;100.00
59757;BME280;45631;51.962;5.974;2023-07-20T08:07:51;101429.66;;;21.15;100.00
59757;BME280;45631;51.962;5.974;2023-07-20T08:10:19;101435.03;;;20.79;100.00
59757;BME280;45631;51.962;5.974;2023-07-20T08:12:47;101424.91;;;21.08;100.00
59757;BME280;45631;51.962;5.974;2023-07-20T08:15:17;101422.72;;;21.04;100.00
59757;BME280;45631;51.962;5.974;2023-07-20T08:17:45;101431.22;;;21.25;100.00
59757;BME280;45631;51.962;5.974;2023-07-20T08:20:16;101429.28;;;21.54;100.00
59757;BME280;45631;51.962;5.974;2023-07-20T08:22:45;101429.41;;;21.78;100.00
59757;BME280;45631;51.962;5.974;2023-07-20T08:25:14;101427.13;;;21.92;100.00
59757;BME280;45631;51.962;5.974;2023-07-20T08:27:42;101429.69;;;22.10;100.00
59757;BME280;45631;51.962;5.974;2023-07-20T08:30:13;101424.75;;;22.32;100.00
59757;BME280;45631;51.962;5.974;2023-07-20T08:32:43;101423.16;;;22.39;100.00
59757;BME280;45631;51.962;5.974;2023-07-20T08:35:11;101428.53;;;22.55;90.38
59757;BME280;45631;51.962;5.974;2023-07-20T08:37:42;101420.69;;;22.95;89.73
59757;BME280;45631;51.962;5.974;2023-07-20T08:40:11;101428.72;;;23.11;84.76
59757;BME280;45631;51.962;5.974;2023-07-20T08:42:40;101420.69;;;23.11;87.26
59757;BME280;45631;51.962;5.974;2023-07-20T08:45:09;101428.91;;;23.43;84.43
59757;BME280;45631;51.962;5.974;2023-07-20T08:47:43;101428.88;;;23.51;82.01
59757;BME280;45631;51.962;5.974;2023-07-20T08:50:13;101427.81;;;23.69;83.78
59757;BME280;45631;51.962;5.974;2023-07-20T08:52:41;101428.19;;;23.66;79.73
59757;BME280;45631;51.962;5.974;2023-07-20T08:55:11;101428.94;;;23.83;81.78
59757;BME280;45631;51.962;5.974;2023-07-20T08:57:41;101434.09;;;23.44;78.89
59757;BME280;45631;51.962;5.974;2023-07-20T09:00:11;101434.44;;;23.41;80.00
59757;BME280;45631;51.962;5.974;2023-07-20T09:02:43;101430.75;;;23.34;78.98
59757;BME280;45631;51.962;5.974;2023-07-20T09:05:13;101433.78;;;23.31;76.90
59757;BME280;45631;51.962;5.974;2023-07-20T09:07:41;101433.78;;;23.31;78.27
59757;BME280;45631;51.962;5.974;2023-07-20T09:10:10;101429.41;;;23.22;70.13
59757;BME280;45631;51.962;5.974;2023-07-20T09:12:41;101426.59;;;23.15;73.04
59757;BME280;45631;51.962;5.974;2023-07-20T09:15:10;101418.38;;;23.17;73.59
59757;BME280;45631;51.962;5.974;2023-07-20T09:17:39;101419.31;;;23.49;68.77
59757;BME280;45631;51.962;5.974;2023-07-20T09:20:09;101414.94;;;23.56;67.06
59757;BME280;45631;51.962;5.974;2023-07-20T09:22:38;101414.38;;;23.77;70.69
59757;BME280;45631;51.962;5.974;2023-07-20T09:25:09;101402.81;;;24.16;71.54
59757;BME280;45631;51.962;5.974;2023-07-20T09:27:39;101409.56;;;24.12;61.15
59757;BME280;45631;51.962;5.974;2023-07-20T09:30:10;101416.53;;;24.53;70.13
59757;BME280;45631;51.962;5.974;2023-07-20T09:32:58;101416.72;;;24.74;66.63
59757;BME280;45631;51.962;5.974;2023-07-20T09:35:29;101411.88;;;24.46;64.42
59757;BME280;45631;51.962;5.974;2023-07-20T09:38:08;101418.84;;;24.64;63.66
59757;BME280;45631;51.962;5.974;2023-07-20T09:40:40;101411.97;;;24.85;62.28
59757;BME280;45631;51.962;5.974;2023-07-20T09:43:11;101414.00;;;24.28;59.73
59757;BME280;45631;51.962;5.974;2023-07-20T09:45:43;101411.34;;;24.20;63.72
59757;BME280;45631;51.962;5.974;2023-07-20T09:48:14;101406.41;;;24.63;64.27
59757;BME280;45631;51.962;5.974;2023-07-20T09:50:50;101412.09;;;24.68;61.67
59757;BME280;45631;51.962;5.974;2023-07-20T09:53:19;101408.84;;;24.73;63.73
59757;BME280;45631;51.962;5.974;2023-07-20T09:55:48;101406.66;;;24.76;64.23
59757;BME280;45631;51.962;5.974;2023-07-20T09:58:17;101402.84;;;24.71;64.60
59757;BME280;45631;51.962;5.974;2023-07-20T10:00:46;101401.59;;;24.27;63.36
59757;BME280;45631;51.962;5.974;2023-07-20T10:03:23;101397.75;;;24.44;62.69
59757;BME280;45631;51.962;5.974;2023-07-20T10:06:08;101400.19;;;24.86;65.77
59757;BME280;45631;51.962;5.974;2023-07-20T10:08:39;101397.50;;;25.24;62.95
59757;BME280;45631;51.962;5.974;2023-07-20T10:11:12;101401.94;;;24.47;64.10
59757;BME280;45631;51.962;5.974;2023-07-20T10:13:43;101398.00;;;24.35;64.54
59757;BME280;45631;51.962;5.974;2023-07-20T10:16:18;101400.88;;;24.33;62.28
59757;BME280;45631;51.962;5.974;2023-07-20T10:18:57;101394.78;;;24.39;63.12
59757;BME280;45631;51.962;5.974;2023-07-20T10:21:29;101394.91;;;24.23;66.45
59757;BME280;45631;51.962;5.974;2023-07-20T10:24:00;101393.16;;;24.30;66.22
59757;BME280;45631;51.962;5.974;2023-07-20T10:26:32;101396.97;;;24.12;69.04
59757;BME280;45631;51.962;5.974;2023-07-20T10:29:04;101394.41;;;24.19;67.91
59757;BME280;45631;51.962;5.974;2023-07-20T10:31:33;101394.03;;;24.22;66.32
59757;BME280;45631;51.962;5.974;2023-07-20T10:34:02;101393.09;;;24.15;63.75
59757;BME280;45631;51.962;5.974;2023-07-20T10:36:32;101390.66;;;24.28;68.57
59757;BME280;45631;51.962;5.974;2023-07-20T10:39:00;101385.22;;;24.13;65.26
59757;BME280;45631;51.962;5.974;2023-07-20T10:41:33;101386.34;;;24.19;64.09
59757;BME280;45631;51.962;5.974;2023-07-20T10:44:02;101380.56;;;24.30;65.21
59757;BME280;45631;51.962;5.974;2023-07-20T10:46:42;101378.44;;;24.49;66.87
59757;BME280;45631;51.962;5.974;2023-07-20T10:49:13;101381.69;;;24.36;67.89
59757;BME280;45631;51.962;5.974;2023-07-20T10:51:45;101372.13;;;24.34;70.21
59757;BME280;45631;51.962;5.974;2023-07-20T10:54:47;101371.75;;;24.68;67.07
59757;BME280;45631;51.962;5.974;2023-07-20T10:57:28;101379.53;;;25.01;66.53
59757;BME280;45631;51.962;5.974;2023-07-20T11:00:09;101374.25;;;25.08;60.46
59757;BME280;45631;51.962;5.974;2023-07-20T11:02:45;101372.97;;;24.57;62.45
59757;BME280;45631;51.962;5.974;2023-07-20T11:05:36;101369.53;;;25.10;60.37
59757;BME280;45631;51.962;5.974;2023-07-20T11:08:11;101372.13;;;25.18;62.42
59757;BME280;45631;51.962;5.974;2023-07-20T11:10:40;101369.38;;;25.41;60.24
59757;BME280;45631;51.962;5.974;2023-07-20T11:13:16;101368.06;;;25.67;58.28
59757;BME280;45631;51.962;5.974;2023-07-20T11:15:45;101366.00;;;25.99;58.49
59757;BME280;45631;51.962;5.974;2023-07-20T11:18:14;101372.88;;;26.02;58.72
59757;BME280;45631;51.962;5.974;2023-07-20T11:20:42;101372.34;;;26.28;56.02
59757;BME280;45631;51.962;5.974;2023-07-20T11:23:12;101366.56;;;26.53;56.06
59757;BME280;45631;51.962;5.974;2023-07-20T11:25:40;101365.41;;;26.40;55.36
59757;BME280;45631;51.962;5.974;2023-07-20T11:28:09;101359.38;;;26.60;54.14
59757;BME280;45631;51.962;5.974;2023-07-20T11:30:38;101357.84;;;26.51;54.74
59757;BME280;45631;51.962;5.974;2023-07-20T11:33:08;101354.63;;;26.62;54.78
59757;BME280;45631;51.962;5.974;2023-07-20T11:35:42;101347.88;;;26.94;52.03
59757;BME280;45631;51.962;5.974;2023-07-20T11:38:12;101345.59;;;26.98;53.92
59757;BME280;45631;51.962;5.974;2023-07-20T11:40:44;101342.31;;;26.74;54.78
59757;BME280;45631;51.962;5.974;2023-07-20T11:43:14;101348.88;;;27.22;52.40
59757;BME280;45631;51.962;5.974;2023-07-20T11:45:45;101344.97;;;27.66;52.07
59757;BME280;45631;51.962;5.974;2023-07-20T11:48:16;101343.19;;;27.93;52.12
59757;BME280;45631;51.962;5.974;2023-07-20T11:50:44;101342.28;;;27.73;51.59
59757;BME280;45631;51.962;5.974;2023-07-20T11:53:15;101342.81;;;27.48;51.64
59757;BME280;45631;51.962;5.974;2023-07-20T11:55:47;101336.38;;;27.49;52.46
59757;BME280;45631;51.962;5.974;2023-07-20T11:58:15;101338.03;;;27.15;55.44
59757;BME280;45631;51.962;5.974;2023-07-20T12:00:45;101342.53;;;27.01;54.26
59757;BME280;45631;51.962;5.974;2023-07-20T12:03:13;101340.06;;;26.78;54.69
59757;BME280;45631;51.962;5.974;2023-07-20T12:05:41;101339.16;;;26.71;54.01
59757;BME280;45631;51.962;5.974;2023-07-20T12:08:28;101339.34;;;26.47;54.17
59757;BME280;45631;51.962;5.974;2023-07-20T12:10:56;101337.16;;;25.63;56.20
59757;BME280;45631;51.962;5.974;2023-07-20T12:13:35;101337.34;;;25.76;57.35
59757;BME280;45631;51.962;5.974;2023-07-20T12:16:10;101337.78;;;25.80;57.52
59757;BME280;45631;51.962;5.974;2023-07-20T12:18:40;101336.31;;;25.77;59.83
59757;BME280;45631;51.962;5.974;2023-07-20T12:21:09;101338.13;;;25.92;60.28
59757;BME280;45631;51.962;5.974;2023-07-20T12:23:40;101335.66;;;25.75;59.38
59757;BME280;45631;51.962;5.974;2023-07-20T12:26:09;101327.22;;;26.37;59.51
59757;BME280;45631;51.962;5.974;2023-07-20T12:28:41;101324.84;;;26.70;56.46
59757;BME280;45631;51.962;5.974;2023-07-20T12:31:10;101327.75;;;26.47;58.92
59757;BME280;45631;51.962;5.974;2023-07-20T12:33:40;101324.72;;;25.98;57.05
59757;BME280;45631;51.962;5.974;2023-07-20T12:36:09;101328.19;;;26.51;56.95
59757;BME280;45631;51.962;5.974;2023-07-20T12:38:38;101326.44;;;27.21;56.36
59757;BME280;45631;51.962;5.974;2023-07-20T12:41:10;101321.19;;;27.13;56.53
59757;BME280;45631;51.962;5.974;2023-07-20T12:43:40;101320.38;;;27.12;53.35
59757;BME280;45631;51.962;5.974;2023-07-20T12:46:10;101313.81;;;27.70;52.24
59757;BME280;45631;51.962;5.974;2023-07-20T12:48:40;101313.56;;;27.65;51.28
59757;BME280;45631;51.962;5.974;2023-07-20T12:51:14;101320.34;;;26.77;52.53
59757;BME280;45631;51.962;5.974;2023-07-20T12:53:46;101317.31;;;27.22;52.14
59757;BME280;45631;51.962;5.974;2023-07-20T12:56:14;101308.78;;;27.54;50.44
59757;BME280;45631;51.962;5.974;2023-07-20T12:58:45;101302.88;;;27.92;51.26